Elkhart, Illinois
Current Conditions -  °F | °C
As of 4:15 AM on Saturday 22 Nov 2014 (Local Time) from KAAA Reporting Station
Overcast Overcast  
Wind Chill: 35°   Ceiling: 3600
Heat Index: 39°   Visibility: 7mi
Dew Point: 35°   Wind: 6mph
Humidity: 85%   Direction: 170°S
Pressure: 30.13"   Gusts: NA
Location:  40.02°N, 89.48°W
Report Text: KAAA 221015Z AUTO 17005KT 7SM OVC036 04/02 A3013 RMK AO2 T00380015
Loading
Personal Weather Stations






























Interactive Weather Map New forecast layout! Learn more

10-Day Weather Forecast

Advertisements
Track Severe Weather on mobile